createdAt,value
2016-03-28T12:33:52.083Z,99.99
2016-03-28T12:34:05.099Z,99.99
2016-03-28T12:34:18.380Z,99.99
2016-03-28T12:34:31.755Z,99.99
2016-03-28T12:34:45.055Z,99.99
2016-03-28T12:34:58.414Z,99.99
2016-03-28T12:35:11.711Z,99.99
2016-03-28T12:35:24.836Z,99.99
2016-03-28T12:35:38.120Z,99.99
2016-03-28T12:35:51.401Z,99.99
2016-03-28T12:36:04.714Z,99.99
2016-03-28T12:36:17.980Z,99.46
2016-03-28T12:36:31.261Z,99.84
2016-03-28T12:36:44.545Z,99.94
2016-03-28T12:36:57.826Z,99.94
2016-03-28T12:37:11.092Z,99.84
2016-03-28T12:37:24.373Z,99.84
2016-03-28T12:37:37.672Z,99.56
2016-03-28T12:37:50.844Z,99.99
2016-03-28T12:38:04.469Z,99.75
2016-03-28T12:38:17.750Z,99.99
2016-03-28T12:38:31.047Z,99.99
2016-03-28T12:38:44.331Z,99.99
2016-03-28T12:38:57.613Z,99.99
2016-03-28T12:39:10.925Z,99.52
2016-03-28T12:39:24.222Z,99.61
2016-03-28T12:39:37.519Z,98.95
2016-03-28T12:39:50.802Z,99.42
2016-03-28T12:40:04.083Z,99.23
2016-03-28T12:40:17.365Z,98.85
2016-03-28T12:40:30.724Z,98.57
2016-03-28T12:40:43.993Z,98.57
2016-03-28T12:40:57.258Z,98.66
2016-03-28T12:41:10.539Z,98.38
2016-03-28T12:41:23.852Z,98.85
2016-03-28T12:41:37.274Z,98.66
2016-03-28T12:41:50.555Z,98.1
2016-03-28T12:42:03.821Z,97.72
2016-03-28T12:42:17.102Z,97.25
2016-03-28T12:42:30.399Z,97.25
2016-03-28T12:42:43.669Z,96.02
2016-03-28T12:42:56.950Z,96.59
2016-03-28T12:43:10.216Z,95.54
2016-03-28T12:43:23.497Z,95.92
2016-03-28T12:43:36.810Z,96.02
2016-03-28T12:43:50.081Z,95.92
2016-03-28T12:44:03.362Z,96.4
2016-03-28T12:44:16.659Z,97.34
2016-03-28T12:44:29.940Z,97.44
2016-03-28T12:44:43.241Z,96.96
2016-03-28T12:44:56.506Z,97.53
2016-03-28T12:45:09.788Z,97.25
2016-03-28T12:45:22.913Z,98
2016-03-28T12:45:36.210Z,97.15
2016-03-28T12:45:49.465Z,97.91
2016-03-28T12:46:02.762Z,98
2016-03-28T12:46:16.043Z,97.63
2016-03-28T12:46:29.309Z,98
2016-03-28T12:46:42.597Z,98.1
2016-03-28T12:46:55.862Z,97.2
2016-03-28T12:47:09.144Z,97.48
2016-03-28T12:47:22.425Z,97.39
2016-03-28T12:47:35.706Z,97.96
2016-03-28T12:47:49.001Z,98.05
2016-03-28T12:48:02.282Z,98.61
2016-03-28T12:48:15.564Z,98.61
2016-03-28T12:48:28.829Z,99.37
2016-03-28T12:48:42.124Z,99.99
2016-03-28T12:48:55.405Z,99.99
2016-03-28T12:49:08.702Z,99.99
2016-03-28T12:49:21.983Z,99.99
2016-03-28T12:49:35.280Z,99.99
2016-03-28T12:49:48.545Z,99.99
2016-03-28T12:50:01.826Z,99.99
2016-03-28T12:50:15.139Z,99.99
2016-03-28T12:50:28.420Z,99.99
2016-03-28T12:50:41.683Z,99.99
2016-03-28T12:50:54.979Z,99.99
2016-03-28T12:51:08.261Z,99.99
2016-03-28T12:51:21.558Z,99.99
2016-03-28T12:51:34.854Z,99.99
2016-03-28T12:51:48.135Z,99.99
2016-03-28T12:52:01.416Z,99.99
2016-03-28T12:52:14.697Z,99.46
2016-03-28T12:52:27.994Z,99.56
2016-03-28T12:52:41.308Z,99.99
2016-03-28T12:52:54.683Z,99.56
2016-03-28T12:53:07.776Z,99.94
2016-03-28T12:53:21.042Z,99.23
2016-03-28T12:53:34.339Z,99.46
2016-03-28T12:53:47.729Z,98.95
2016-03-28T12:54:00.995Z,98.95
2016-03-28T12:54:14.276Z,98.57
2016-03-28T12:54:27.542Z,98.66
2016-03-28T12:54:40.652Z,98.76
2016-03-28T12:54:53.934Z,98.57
2016-03-28T12:55:07.215Z,99.33
2016-03-28T12:55:20.512Z,98.95
2016-03-28T12:55:33.793Z,98.57
2016-03-28T12:55:47.076Z,98.28
2016-03-28T12:56:00.357Z,98.47
2016-03-28T12:56:13.639Z,98.38
2016-03-28T12:56:26.936Z,98.38
2016-03-28T12:56:40.217Z,98.85
2016-03-28T12:56:53.498Z,98.95
2016-03-28T12:57:06.779Z,98.28
2016-03-28T12:57:20.092Z,98.28
2016-03-28T12:57:33.404Z,97.81
2016-03-28T12:57:46.672Z,98.19
2016-03-28T12:57:59.938Z,97.72
2016-03-28T12:58:13.219Z,98.1
2016-03-28T12:58:26.734Z,98.28
2016-03-28T12:58:40.034Z,98.71
2016-03-28T12:58:53.316Z,99.08
2016-03-28T12:59:06.597Z,99.08
2016-03-28T12:59:19.894Z,99.18
2016-03-28T12:59:33.191Z,99.56
2016-03-28T12:59:46.490Z,99.94
2016-03-28T12:59:59.772Z,99.99
2016-03-28T13:00:13.053Z,99.99
2016-03-28T13:00:26.319Z,99.99
2016-03-28T13:00:39.615Z,99.99
2016-03-28T13:00:52.914Z,99.99
2016-03-28T13:01:06.180Z,99.99
2016-03-28T13:01:19.461Z,99.99
2016-03-28T13:01:32.727Z,99.99
2016-03-28T13:01:46.057Z,99.99
2016-03-28T13:01:59.354Z,99.99
2016-03-28T13:02:12.635Z,99.32
2016-03-28T13:02:25.916Z,99.32
2016-03-28T13:02:39.198Z,98.47
2016-03-28T13:02:52.482Z,98.47
2016-03-28T13:03:05.763Z,98.57
2016-03-28T13:03:19.044Z,99.22
2016-03-28T13:03:32.341Z,99.99
2016-03-28T13:03:45.640Z,99.6
2016-03-28T13:03:58.921Z,99.99
2016-03-28T13:04:12.187Z,99.99
2016-03-28T13:04:25.453Z,99.99
2016-03-28T13:04:38.734Z,99.99
2016-03-28T13:04:52.033Z,99.99
2016-03-28T13:05:05.330Z,99.99
2016-03-28T13:05:18.595Z,99.99
2016-03-28T13:05:31.908Z,99.99
2016-03-28T13:05:45.208Z,99.99
2016-03-28T13:05:58.489Z,99.99
2016-03-28T13:06:11.770Z,99.99
2016-03-28T13:06:25.036Z,99.99
2016-03-28T13:06:38.333Z,99.99
2016-03-28T13:06:51.631Z,99.99
2016-03-28T13:07:04.913Z,99.99
2016-03-28T13:07:18.178Z,99.99
2016-03-28T13:07:31.460Z,99.99
2016-03-28T13:07:44.759Z,99.99
2016-03-28T13:07:58.056Z,99.99
2016-03-28T13:08:11.041Z,99.99
2016-03-28T13:08:24.322Z,99.99
2016-03-28T13:08:37.634Z,99.99
2016-03-28T13:08:50.918Z,99.99
2016-03-28T13:09:04.215Z,99.99
2016-03-28T13:09:17.480Z,99.99
2016-03-28T13:09:30.761Z,99.99
2016-03-28T13:09:44.046Z,99.99
2016-03-28T13:09:57.343Z,99.99
2016-03-28T13:10:10.624Z,99.99
2016-03-28T13:10:23.905Z,99.99
2016-03-28T13:10:37.186Z,99.99
2016-03-28T13:10:50.471Z,99.99
2016-03-28T13:11:03.767Z,99.99
2016-03-28T13:11:16.892Z,99.99
2016-03-28T13:11:30.158Z,99.99
2016-03-28T13:11:43.457Z,99.99
2016-03-28T13:11:56.754Z,99.99
2016-03-28T13:12:10.035Z,99.99
2016-03-28T13:12:23.316Z,99.99
2016-03-28T13:12:36.598Z,99.99
2016-03-28T13:12:49.882Z,99.99
2016-03-28T13:13:03.163Z,99.99
2016-03-28T13:13:16.444Z,99.99
2016-03-28T13:13:29.710Z,99.99
2016-03-28T13:13:42.994Z,99.99
2016-03-28T13:13:56.260Z,99.99
2016-03-28T13:14:09.541Z,99.99
2016-03-28T13:14:22.807Z,99.99
2016-03-28T13:14:36.088Z,99.99
2016-03-28T13:14:49.387Z,99.99
2016-03-28T13:15:02.668Z,99.99
2016-03-28T13:15:15.949Z,99.99
2016-03-28T13:15:29.262Z,99.99
2016-03-28T13:15:42.421Z,99.99
2016-03-28T13:15:55.546Z,99.99
2016-03-28T13:16:08.827Z,99.99
2016-03-28T13:16:22.093Z,99.99
2016-03-28T13:16:35.390Z,99.99
2016-03-28T13:16:48.674Z,99.99
2016-03-28T13:17:01.955Z,99.99
2016-03-28T13:17:15.237Z,99.99
2016-03-28T13:17:28.518Z,99.99
2016-03-28T13:17:41.817Z,99.99
2016-03-28T13:17:55.082Z,99.99
2016-03-28T13:18:08.379Z,99.99
2016-03-28T13:18:21.676Z,99.99
2016-03-28T13:18:34.957Z,99.99
2016-03-28T13:18:48.242Z,99.99
2016-03-28T13:19:01.523Z,99.99
2016-03-28T13:19:14.804Z,99.99
2016-03-28T13:19:28.085Z,99.99
2016-03-28T13:19:41.385Z,99.99
2016-03-28T13:19:54.651Z,99.99
2016-03-28T13:20:07.916Z,99.99
2016-03-28T13:20:21.198Z,99.99
2016-03-28T13:20:34.495Z,99.99
2016-03-28T13:20:47.779Z,99.99
2016-03-28T13:21:01.060Z,99.99
2016-03-28T13:21:14.341Z,99.99
2016-03-28T13:21:27.623Z,99.99
2016-03-28T13:21:40.921Z,99.99
2016-03-28T13:21:54.203Z,99.99
2016-03-28T13:22:07.484Z,99.99
2016-03-28T13:22:20.781Z,99.99
2016-03-28T13:22:33.921Z,99.99
2016-03-28T13:22:47.221Z,99.99
2016-03-28T13:23:00.503Z,99.99
2016-03-28T13:23:13.862Z,99.99
2016-03-28T13:23:27.159Z,99.99
2016-03-28T13:23:40.440Z,99.99
2016-03-28T13:23:53.739Z,99.99
2016-03-28T13:24:07.036Z,99.99
2016-03-28T13:24:20.161Z,99.99
2016-03-28T13:24:33.442Z,99.99
2016-03-28T13:24:46.742Z,99.99
2016-03-28T13:25:00.023Z,99.99
2016-03-28T13:25:13.304Z,99.99
2016-03-28T13:25:26.570Z,99.99
2016-03-28T13:25:39.836Z,99.99
2016-03-28T13:25:53.104Z,99.99
2016-03-28T13:26:06.386Z,99.99
2016-03-28T13:26:19.636Z,99.99
2016-03-28T13:26:32.901Z,99.99
2016-03-28T13:26:46.169Z,99.99
2016-03-28T13:26:59.434Z,99.99
2016-03-28T13:27:12.716Z,99.99
2016-03-28T13:27:25.997Z,99.99
2016-03-28T13:27:39.278Z,99.99
2016-03-28T13:27:52.547Z,99.99
2016-03-28T13:28:05.828Z,99.99
2016-03-28T13:28:19.109Z,99.99
2016-03-28T13:28:32.375Z,99.99
2016-03-28T13:28:45.690Z,99.99
2016-03-28T13:28:58.972Z,99.99
2016-03-28T13:29:12.253Z,99.99
2016-03-28T13:29:25.519Z,99.99
2016-03-28T13:29:38.815Z,99.99
2016-03-28T13:29:52.083Z,99.99
2016-03-28T13:30:05.380Z,99.99
2016-03-28T13:30:18.661Z,99.99
2016-03-28T13:30:31.927Z,99.99
2016-03-28T13:30:45.227Z,99.99
2016-03-28T13:30:58.524Z,99.99
2016-03-28T13:31:11.805Z,99.99
2016-03-28T13:31:25.086Z,99.99
2016-03-28T13:31:38.383Z,99.99
2016-03-28T13:31:51.652Z,99.99
2016-03-28T13:32:04.933Z,99.99
2016-03-28T13:32:18.214Z,99.99
2016-03-28T13:32:31.527Z,99.99
2016-03-28T13:32:44.825Z,99.99
2016-03-28T13:32:58.091Z,99.99
2016-03-28T13:33:11.372Z,99.99
2016-03-28T13:33:24.654Z,99.99
2016-03-28T13:33:37.950Z,99.99
2016-03-28T13:33:51.219Z,99.99
2016-03-28T13:34:04.703Z,99.99
2016-03-28T13:34:17.985Z,99.99
2016-03-28T13:34:31.297Z,99.99
2016-03-28T13:34:44.581Z,99.99
2016-03-28T13:34:57.128Z,99.99
2016-03-28T13:35:10.410Z,99.99
2016-03-28T13:35:23.722Z,99.99
2016-03-28T13:35:37.003Z,99.99
2016-03-28T13:35:50.272Z,99.99
2016-03-28T13:36:03.553Z,99.99
2016-03-28T13:36:16.881Z,99.99
2016-03-28T13:36:30.178Z,99.99
2016-03-28T13:36:43.446Z,99.99
2016-03-28T13:36:56.743Z,99.99
2016-03-28T13:37:10.008Z,99.99
2016-03-28T13:37:23.305Z,99.99
2016-03-28T13:37:36.586Z,99.99
2016-03-28T13:37:49.886Z,99.99
2016-03-28T13:38:03.168Z,99.99
2016-03-28T13:38:16.464Z,99.99
2016-03-28T13:38:29.808Z,99.99
2016-03-28T13:38:43.092Z,99.99
2016-03-28T13:38:56.374Z,99.99
2016-03-28T13:39:09.655Z,99.99
2016-03-28T13:39:22.952Z,99.99
2016-03-28T13:39:36.233Z,99.99
2016-03-28T13:39:49.501Z,99.99
2016-03-28T13:40:02.798Z,99.99
2016-03-28T13:40:16.079Z,99.99
2016-03-28T13:40:29.376Z,99.99
2016-03-28T13:40:42.676Z,99.99
2016-03-28T13:40:55.957Z,99.99
2016-03-28T13:41:09.222Z,99.99
2016-03-28T13:41:22.519Z,99.99
2016-03-28T13:41:35.801Z,99.99
2016-03-28T13:41:49.272Z,99.99
2016-03-28T13:42:02.882Z,99.99
2016-03-28T13:42:17.491Z,99.99
2016-03-28T13:42:30.788Z,99.99
2016-03-28T13:42:44.087Z,99.99
2016-03-28T13:42:57.368Z,99.99
2016-03-28T13:43:10.634Z,99.99
2016-03-28T13:43:23.962Z,99.99
2016-03-28T13:43:37.259Z,99.99
2016-03-28T13:43:50.543Z,99.99
2016-03-28T13:44:03.840Z,99.99
2016-03-28T13:44:17.121Z,99.99
2016-03-28T13:44:30.418Z,99.99
2016-03-28T13:44:43.702Z,99.99
2016-03-28T13:44:56.983Z,99.99
2016-03-28T13:45:10.249Z,99.99
2016-03-28T13:45:23.546Z,99.99
2016-03-28T13:45:36.858Z,99.99
2016-03-28T13:45:50.143Z,99.99
2016-03-28T13:46:03.440Z,99.99
2016-03-28T13:46:16.721Z,99.99
2016-03-28T13:46:30.018Z,99.99
2016-03-28T13:46:43.317Z,99.99
2016-03-28T13:46:56.598Z,99.99
2016-03-28T13:47:09.879Z,99.99
2016-03-28T13:47:23.176Z,99.99
2016-03-28T13:47:36.473Z,99.99
2016-03-28T13:47:49.757Z,99.99
2016-03-28T13:48:03.023Z,99.99
2016-03-28T13:48:16.304Z,99.99
2016-03-28T13:48:29.601Z,99.99
2016-03-28T13:48:42.868Z,99.99
2016-03-28T13:48:56.165Z,99.99
2016-03-28T13:49:09.431Z,99.99
2016-03-28T13:49:22.743Z,99.99
2016-03-28T13:49:36.025Z,99.99
2016-03-28T13:49:49.153Z,99.99
2016-03-28T13:50:02.434Z,99.99
2016-03-28T13:50:15.715Z,99.99
2016-03-28T13:50:29.012Z,99.99
2016-03-28T13:50:42.296Z,99.99
2016-03-28T13:50:55.578Z,99.99
2016-03-28T13:51:08.859Z,99.99
2016-03-28T13:51:22.156Z,99.99
2016-03-28T13:51:35.468Z,99.99
2016-03-28T13:51:48.751Z,99.99
2016-03-28T13:52:02.048Z,99.99
2016-03-28T13:52:15.345Z,99.99
2016-03-28T13:52:28.642Z,99.99
2016-03-28T13:52:41.959Z,99.99
2016-03-28T13:52:55.240Z,99.99
2016-03-28T13:53:08.521Z,99.99
2016-03-28T13:53:21.834Z,99.99
2016-03-28T13:53:35.146Z,99.99
2016-03-28T13:53:48.554Z,99.99
2016-03-28T13:54:01.820Z,99.99
2016-03-28T13:54:15.132Z,99.99
2016-03-28T13:54:28.398Z,99.99
2016-03-28T13:54:41.698Z,99.99
2016-03-28T13:54:54.995Z,99.99
2016-03-28T13:55:08.292Z,99.99
2016-03-28T13:55:21.589Z,99.99
2016-03-28T13:55:34.870Z,99.99
2016-03-28T13:55:47.998Z,99.99
2016-03-28T13:56:01.279Z,99.99
2016-03-28T13:56:14.560Z,99.99
2016-03-28T13:56:27.857Z,99.99
2016-03-28T13:56:41.125Z,99.99
2016-03-28T13:56:54.406Z,99.99
2016-03-28T13:57:07.719Z,99.99
2016-03-28T13:57:21.000Z,99.99
2016-03-28T13:57:34.265Z,99.99
2016-03-28T13:57:47.550Z,99.99
2016-03-28T13:58:00.831Z,99.99
2016-03-28T13:58:14.112Z,99.99
2016-03-28T13:58:27.378Z,99.99
2016-03-28T13:58:40.643Z,99.99
2016-03-28T13:58:53.927Z,99.99
2016-03-28T13:59:07.239Z,99.99
2016-03-28T13:59:20.536Z,99.99
2016-03-28T13:59:33.817Z,99.99
2016-03-28T13:59:47.102Z,99.99
2016-03-28T14:00:00.398Z,99.99
2016-03-28T14:00:13.716Z,99.99
2016-03-28T14:00:26.997Z,99.99
2016-03-28T14:00:40.278Z,99.99
2016-03-28T14:00:53.593Z,99.99
2016-03-28T14:01:06.858Z,99.99
2016-03-28T14:01:20.140Z,99.99
2016-03-28T14:01:33.437Z,99.99
2016-03-28T14:01:46.736Z,99.99
2016-03-28T14:02:00.033Z,99.99
2016-03-28T14:02:13.315Z,99.99
2016-03-28T14:02:26.611Z,99.99
2016-03-28T14:02:39.924Z,99.99
2016-03-28T14:02:53.208Z,99.99
2016-03-28T14:03:06.489Z,99.99
2016-03-28T14:03:19.786Z,99.99
2016-03-28T14:03:33.068Z,99.99
2016-03-28T14:03:46.382Z,99.99
2016-03-28T14:03:59.679Z,99.99
2016-03-28T14:04:12.960Z,99.99
2016-03-28T14:04:26.273Z,99.99
2016-03-28T14:04:39.585Z,99.99
2016-03-28T14:04:52.869Z,99.99
2016-03-28T14:05:06.166Z,99.99
2016-03-28T14:05:19.432Z,99.99
2016-03-28T14:05:32.760Z,99.99
2016-03-28T14:05:46.044Z,99.99
2016-03-28T14:05:59.341Z,99.99
2016-03-28T14:06:12.622Z,99.99
2016-03-28T14:06:25.904Z,99.99
2016-03-28T14:06:39.201Z,99.99
2016-03-28T14:06:52.500Z,99.99
2016-03-28T14:07:05.783Z,99.99
2016-03-28T14:07:19.064Z,99.99
2016-03-28T14:07:32.376Z,99.99
2016-03-28T14:07:45.676Z,99.99
2016-03-28T14:07:58.957Z,99.99
2016-03-28T14:08:12.520Z,99.99
2016-03-28T14:08:25.942Z,99.99
2016-03-28T14:08:39.239Z,99.99
2016-03-28T14:08:52.350Z,99.99
2016-03-28T14:09:05.631Z,99.99
2016-03-28T14:09:18.928Z,99.99
2016-03-28T14:09:32.225Z,99.99
2016-03-28T14:09:45.728Z,99.99
2016-03-28T14:09:58.853Z,99.99
2016-03-28T14:10:12.150Z,99.99
2016-03-28T14:10:25.462Z,99.99
2016-03-28T14:10:38.744Z,99.99
2016-03-28T14:10:52.027Z,99.99
2016-03-28T14:11:05.308Z,99.99
2016-03-28T14:11:18.589Z,99.99
2016-03-28T14:11:31.886Z,99.99
2016-03-28T14:11:45.171Z,99.99
2016-03-28T14:11:58.452Z,99.99
2016-03-28T14:12:11.764Z,99.99
2016-03-28T14:12:25.061Z,99.99
2016-03-28T14:12:38.342Z,99.99
2016-03-28T14:12:51.627Z,99.99
2016-03-28T14:13:04.752Z,99.99
2016-03-28T14:13:18.033Z,99.99
2016-03-28T14:13:31.314Z,99.99
2016-03-28T14:13:44.598Z,99.99
2016-03-28T14:13:57.880Z,99.99
2016-03-28T14:14:11.161Z,99.99
2016-03-28T14:14:24.427Z,99.99
2016-03-28T14:14:37.739Z,99.99
2016-03-28T14:14:51.038Z,99.99
2016-03-28T14:15:04.319Z,99.99
2016-03-28T14:15:17.600Z,99.99
2016-03-28T14:15:30.913Z,99.99
2016-03-28T14:15:43.697Z,99.99
2016-03-28T14:15:56.978Z,99.99
2016-03-28T14:16:10.260Z,99.99
2016-03-28T14:16:23.541Z,99.99
2016-03-28T14:16:36.822Z,99.99
2016-03-28T14:16:50.106Z,99.99
2016-03-28T14:17:03.388Z,99.99
2016-03-28T14:17:16.669Z,99.99
2016-03-28T14:17:29.966Z,99.99
2016-03-28T14:17:43.233Z,99.99
2016-03-28T14:17:56.515Z,99.99
2016-03-28T14:18:09.812Z,99.99
2016-03-28T14:18:23.077Z,99.99
2016-03-28T14:18:36.358Z,99.99
2016-03-28T14:18:49.658Z,99.99
2016-03-28T14:19:02.955Z,99.99
2016-03-28T14:19:16.221Z,99.99
2016-03-28T14:19:29.518Z,99.99
2016-03-28T14:19:42.815Z,99.99
2016-03-28T14:19:56.099Z,99.99
2016-03-28T14:20:09.380Z,99.99
2016-03-28T14:20:22.661Z,99.99
2016-03-28T14:20:35.943Z,99.99
2016-03-28T14:20:49.242Z,99.99
2016-03-28T14:21:02.539Z,99.99
2016-03-28T14:21:15.821Z,99.99
2016-03-28T14:21:29.102Z,99.99
2016-03-28T14:21:42.399Z,99.99
2016-03-28T14:21:55.683Z,99.99
2016-03-28T14:22:08.980Z,99.99
2016-03-28T14:22:22.261Z,99.99
2016-03-28T14:22:35.558Z,99.99
2016-03-28T14:22:48.841Z,99.99
2016-03-28T14:23:02.138Z,99.99
2016-03-28T14:23:15.435Z,99.99
2016-03-28T14:23:28.779Z,99.99
2016-03-28T14:23:42.044Z,99.99
2016-03-28T14:23:55.344Z,99.99
2016-03-28T14:24:08.641Z,99.99
2016-03-28T14:24:21.922Z,99.99
2016-03-28T14:24:35.219Z,99.99
2016-03-28T14:24:48.519Z,99.99
2016-03-28T14:25:01.800Z,99.99
2016-03-28T14:25:15.082Z,99.99
2016-03-28T14:25:28.378Z,99.99
2016-03-28T14:25:41.503Z,99.99
2016-03-28T14:25:54.802Z,99.99
2016-03-28T14:26:08.099Z,99.99
2016-03-28T14:26:21.396Z,99.99
2016-03-28T14:26:34.662Z,99.99
2016-03-28T14:26:47.977Z,99.99
2016-03-28T14:27:01.290Z,99.99
2016-03-28T14:27:14.602Z,99.99
2016-03-28T14:27:27.883Z,99.99
2016-03-28T14:27:41.180Z,99.99
2016-03-28T14:27:54.480Z,99.99
2016-03-28T14:28:07.761Z,99.99
2016-03-28T14:28:21.058Z,99.99
2016-03-28T14:28:34.340Z,99.99
2016-03-28T14:28:47.638Z,99.99
2016-03-28T14:29:00.920Z,99.99
2016-03-28T14:29:14.232Z,99.99
2016-03-28T14:29:27.482Z,99.99
2016-03-28T14:29:40.748Z,99.99
2016-03-28T14:29:54.032Z,99.99
2016-03-28T14:30:06.563Z,99.99
2016-03-28T14:30:19.845Z,99.99
2016-03-28T14:30:33.110Z,99.99
2016-03-28T14:30:46.394Z,99.99
2016-03-28T14:30:59.691Z,99.99
2016-03-28T14:31:12.988Z,99.99
2016-03-28T14:31:26.269Z,99.99
2016-03-28T14:31:39.551Z,99.99
2016-03-28T14:31:52.834Z,99.99
2016-03-28T14:32:06.131Z,99.99
2016-03-28T14:32:19.412Z,99.99
2016-03-28T14:32:32.725Z,99.99
2016-03-28T14:32:46.024Z,99.99
2016-03-28T14:32:59.306Z,99.99
2016-03-28T14:33:12.603Z,99.99
2016-03-28T14:33:25.884Z,99.99
2016-03-28T14:33:39.149Z,99.99
2016-03-28T14:33:52.434Z,99.99
2016-03-28T14:34:05.715Z,99.99
2016-03-28T14:34:18.981Z,99.99
2016-03-28T14:34:32.262Z,99.99
2016-03-28T14:34:45.576Z,99.99
2016-03-28T14:34:58.873Z,99.99
2016-03-28T14:35:12.139Z,99.99
2016-03-28T14:35:25.436Z,99.99
2016-03-28T14:35:38.748Z,99.99
2016-03-28T14:35:52.017Z,99.99
2016-03-28T14:36:05.329Z,99.99
2016-03-28T14:36:18.611Z,99.99
2016-03-28T14:36:31.892Z,99.99
2016-03-28T14:36:45.207Z,99.99
2016-03-28T14:36:58.489Z,99.99
2016-03-28T14:37:11.770Z,99.99
2016-03-28T14:37:25.051Z,99.99
2016-03-28T14:37:38.348Z,99.99
2016-03-28T14:37:51.632Z,99.99
2016-03-28T14:38:04.913Z,99.99
2016-03-28T14:38:18.273Z,99.99
2016-03-28T14:38:31.913Z,99.99
2016-03-28T14:38:45.212Z,99.99
2016-03-28T14:38:58.540Z,99.99
2016-03-28T14:39:11.822Z,99.99
2016-03-28T14:39:25.103Z,99.99
2016-03-28T14:39:38.400Z,99.99
2016-03-28T14:39:51.528Z,99.99
2016-03-28T14:40:04.840Z,99.99
2016-03-28T14:40:18.122Z,99.99
2016-03-28T14:40:31.418Z,99.99
2016-03-28T14:40:44.734Z,99.99
2016-03-28T14:40:58.015Z,99.99
2016-03-28T14:41:11.296Z,99.99
2016-03-28T14:41:24.578Z,99.99
2016-03-28T14:41:37.875Z,99.99
2016-03-28T14:41:51.158Z,99.99
2016-03-28T14:42:04.439Z,99.99
2016-03-28T14:42:17.705Z,99.99
2016-03-28T14:42:31.017Z,99.99
2016-03-28T14:42:44.301Z,99.99
2016-03-28T14:42:57.598Z,99.99
2016-03-28T14:43:10.895Z,99.99
2016-03-28T14:43:24.161Z,99.99
2016-03-28T14:43:37.458Z,99.99
2016-03-28T14:43:50.773Z,99.99
2016-03-28T14:44:04.054Z,99.99
2016-03-28T14:44:17.179Z,99.99
2016-03-28T14:44:30.304Z,99.99
2016-03-28T14:44:43.822Z,99.99
2016-03-28T14:44:57.103Z,99.99
2016-03-28T14:45:10.416Z,99.99
2016-03-28T14:45:23.681Z,99.99
2016-03-28T14:45:36.963Z,99.99
2016-03-28T14:45:50.263Z,99.99
2016-03-28T14:46:03.403Z,99.99
2016-03-28T14:46:16.684Z,99.99
2016-03-28T14:46:29.966Z,99.99
2016-03-28T14:46:43.247Z,99.99
2016-03-28T14:46:56.547Z,99.99
2016-03-28T14:47:09.812Z,99.99
2016-03-28T14:47:23.094Z,99.99
2016-03-28T14:47:36.391Z,99.99
2016-03-28T14:47:49.689Z,99.99
2016-03-28T14:48:02.986Z,99.99
2016-03-28T14:48:16.268Z,99.99
2016-03-28T14:48:29.549Z,99.99
2016-03-28T14:48:42.830Z,99.99
2016-03-28T14:48:56.114Z,99.99
2016-03-28T14:49:09.411Z,99.99
2016-03-28T14:49:22.692Z,99.99
2016-03-28T14:49:35.974Z,99.99
2016-03-28T14:49:49.274Z,99.99
2016-03-28T14:50:02.570Z,99.99
2016-03-28T14:50:15.852Z,99.99
2016-03-28T14:50:29.133Z,99.99
2016-03-28T14:50:42.430Z,99.99
2016-03-28T14:50:55.729Z,99.99
2016-03-28T14:51:09.026Z,99.99
2016-03-28T14:51:22.307Z,99.99
2016-03-28T14:51:35.588Z,99.99
2016-03-28T14:51:48.905Z,99.99
2016-03-28T14:52:02.186Z,99.99
2016-03-28T14:52:15.483Z,99.99
2016-03-28T14:52:28.764Z,99.99
2016-03-28T14:52:42.061Z,99.99
2016-03-28T14:52:55.344Z,99.99
2016-03-28T14:53:08.641Z,99.99
2016-03-28T14:53:22.188Z,99.99
2016-03-28T14:53:35.828Z,99.99
2016-03-28T14:53:49.113Z,99.99
2016-03-28T14:54:02.410Z,99.99
2016-03-28T14:54:15.722Z,99.99
2016-03-28T14:54:28.988Z,99.99
2016-03-28T14:54:42.316Z,99.99
2016-03-28T14:54:55.599Z,99.99
2016-03-28T14:55:08.880Z,99.99
2016-03-28T14:55:22.146Z,99.99
2016-03-28T14:55:35.474Z,99.99
2016-03-28T14:55:48.774Z,99.99
2016-03-28T14:56:02.071Z,99.99
2016-03-28T14:56:15.352Z,99.99
2016-03-28T14:56:28.649Z,99.99
2016-03-28T14:56:41.946Z,99.99
2016-03-28T14:56:55.246Z,99.99
2016-03-28T14:57:08.511Z,99.99
2016-03-28T14:57:21.793Z,99.99
2016-03-28T14:57:35.074Z,99.99
2016-03-28T14:57:48.374Z,99.99
2016-03-28T14:58:01.655Z,99.99
2016-03-28T14:58:14.952Z,99.99
2016-03-28T14:58:28.249Z,99.99
2016-03-28T14:58:41.514Z,99.99
2016-03-28T14:58:54.813Z,99.99
2016-03-28T14:59:08.094Z,99.99
2016-03-28T14:59:21.391Z,99.99
2016-03-28T14:59:34.688Z,99.99
2016-03-28T14:59:47.972Z,99.99
2016-03-28T15:00:01.254Z,99.99
2016-03-28T15:00:14.551Z,99.99
2016-03-28T15:00:27.832Z,99.99
2016-03-28T15:00:41.097Z,99.99
2016-03-28T15:00:54.382Z,99.99
2016-03-28T15:01:07.663Z,99.99
2016-03-28T15:01:20.944Z,99.99
2016-03-28T15:01:34.210Z,99.99
2016-03-28T15:01:47.477Z,99.99
2016-03-28T15:02:00.743Z,99.99
2016-03-28T15:02:14.056Z,99.99
2016-03-28T15:02:27.352Z,99.99
2016-03-28T15:02:40.634Z,99.99
2016-03-28T15:02:53.934Z,99.99
2016-03-28T15:03:07.230Z,99.99
2016-03-28T15:03:20.543Z,99.99
2016-03-28T15:03:33.855Z,99.99
2016-03-28T15:03:47.123Z,99.99
2016-03-28T15:04:00.404Z,99.99
2016-03-28T15:04:13.717Z,99.99
2016-03-28T15:04:26.998Z,99.99
2016-03-28T15:04:40.279Z,99.99
2016-03-28T15:04:53.423Z,99.99
2016-03-28T15:05:06.735Z,99.99
2016-03-28T15:05:20.017Z,99.99
2016-03-28T15:05:33.282Z,99.99
2016-03-28T15:05:46.579Z,99.99
2016-03-28T15:05:59.863Z,99.99
2016-03-28T15:06:13.160Z,99.99
2016-03-28T15:06:26.442Z,99.99
2016-03-28T15:06:39.723Z,99.99
2016-03-28T15:06:53.006Z,99.99
2016-03-28T15:07:06.225Z,99.99
2016-03-28T15:07:19.334Z,99.99
2016-03-28T15:07:32.459Z,99.99
2016-03-28T15:07:45.756Z,99.99
2016-03-28T15:07:59.040Z,99.99
2016-03-28T15:08:12.353Z,99.99
2016-03-28T15:08:25.915Z,99.99
2016-03-28T15:08:39.197Z,99.99
2016-03-28T15:08:52.496Z,99.99
2016-03-28T15:09:05.762Z,99.99
2016-03-28T15:09:19.012Z,99.99
2016-03-28T15:09:32.293Z,99.99
2016-03-28T15:09:45.575Z,99.99
2016-03-28T15:09:58.858Z,99.99
2016-03-28T15:10:12.155Z,99.99
2016-03-28T15:10:25.452Z,99.99
2016-03-28T15:10:38.717Z,99.99
2016-03-28T15:10:52.033Z,99.99
2016-03-28T15:11:05.314Z,99.99
2016-03-28T15:11:18.611Z,99.99
2016-03-28T15:11:31.892Z,99.99
2016-03-28T15:11:45.173Z,99.99
2016-03-28T15:11:58.458Z,99.99
2016-03-28T15:12:11.598Z,99.99
2016-03-28T15:12:24.879Z,99.99
2016-03-28T15:12:38.145Z,99.99
2016-03-28T15:12:51.444Z,99.99
2016-03-28T15:13:04.741Z,99.99
2016-03-28T15:13:18.022Z,99.99
2016-03-28T15:13:31.303Z,99.99
2016-03-28T15:13:44.600Z,99.99
2016-03-28T15:13:57.884Z,99.99
2016-03-28T15:14:11.181Z,99.99
2016-03-28T15:14:24.463Z,99.99
2016-03-28T15:14:37.744Z,99.99
2016-03-28T15:14:51.044Z,99.99
2016-03-28T15:15:04.341Z,99.99
2016-03-28T15:15:17.606Z,99.99
2016-03-28T15:15:30.919Z,99.99
2016-03-28T15:15:44.184Z,99.99
2016-03-28T15:15:57.469Z,99.99
2016-03-28T15:16:10.765Z,99.99
2016-03-28T15:16:24.047Z,99.99
2016-03-28T15:16:37.328Z,99.99
2016-03-28T15:16:50.627Z,99.99
2016-03-28T15:17:03.892Z,99.99
2016-03-28T15:17:17.189Z,99.99
2016-03-28T15:17:30.471Z,99.99
2016-03-28T15:17:43.752Z,99.99
2016-03-28T15:17:57.036Z,99.99
2016-03-28T15:18:10.349Z,99.99
2016-03-28T15:18:23.614Z,99.99
2016-03-28T15:18:36.911Z,99.99
2016-03-28T15:18:50.195Z,99.99
2016-03-28T15:19:03.461Z,99.99
2016-03-28T15:19:16.758Z,99.99
2016-03-28T15:19:30.023Z,99.99
2016-03-28T15:19:43.336Z,99.99
2016-03-28T15:19:56.604Z,99.99
2016-03-28T15:20:09.885Z,99.99
2016-03-28T15:20:23.182Z,99.99
2016-03-28T15:20:36.494Z,99.99
2016-03-28T15:20:49.810Z,99.99
2016-03-28T15:21:03.075Z,99.99
2016-03-28T15:21:16.372Z,99.99
2016-03-28T15:21:29.653Z,99.99
2016-03-28T15:21:42.935Z,99.99
2016-03-28T15:21:56.219Z,99.99
2016-03-28T15:22:09.485Z,99.99
2016-03-28T15:22:22.781Z,99.99
2016-03-28T15:22:36.078Z,99.99
2016-03-28T15:22:49.346Z,99.99
2016-03-28T15:23:02.643Z,99.99
2016-03-28T15:23:16.127Z,99.99
2016-03-28T15:23:29.549Z,99.99
2016-03-28T15:23:42.830Z,99.99
2016-03-28T15:23:56.130Z,99.99
2016-03-28T15:24:09.411Z,99.99
2016-03-28T15:24:22.693Z,99.99
2016-03-28T15:24:35.990Z,99.99
2016-03-28T15:24:49.274Z,99.99
2016-03-28T15:25:02.555Z,99.99